Time;durP1;ratioP1;P1;durP2;ratioP2;P2;SDS_P1;SDS_P2;PMS_P1;PMS_P2;Temp;Humidity;BMP_temperature;BMP_pressure;BME280_temperature;BME280_humidity;BME280_pressure;Samples;Min_cycle;Max_cycle;Signal;HPM_P1;HPM_P2
2022/12/24 00:01:18;;;;;;;39.75;26.13;;;12.00;91.60;;;;;;5053414;28;20039;-70
2022/12/24 00:03:43;;;;;;;40.33;25.25;;;12.00;91.50;;;;;;5035258;28;20052;-69
2022/12/24 00:06:17;;;;;;;34.80;24.80;;;12.00;91.50;;;;;;5053294;28;20128;-72
2022/12/24 00:08:43;;;;;;;41.85;26.52;;;12.00;91.70;;;;;;5053500;28;20396;-70
2022/12/24 00:11:09;;;;;;;30.63;24.70;;;11.90;91.60;;;;;;5035441;28;20124;-70
2022/12/24 00:13:34;;;;;;;38.58;26.42;;;11.90;91.50;;;;;;5053148;28;20035;-70
2022/12/24 00:16:00;;;;;;;41.28;24.65;;;11.90;91.60;;;;;;5053176;28;20029;-71
2022/12/24 00:18:26;;;;;;;33.70;25.05;;;11.90;91.60;;;;;;5035172;28;20151;-71
2022/12/24 00:20:52;;;;;;;37.42;25.55;;;11.90;91.60;;;;;;5053230;28;20035;-70
2022/12/24 00:23:18;;;;;;;38.03;27.73;;;11.90;91.60;;;;;;5034964;28;20492;-71
2022/12/24 00:25:45;;;;;;;39.78;27.40;;;12.00;91.70;;;;;;5034866;28;20065;-70
2022/12/24 00:28:12;;;;;;;35.17;26.10;;;11.90;91.50;;;;;;5052614;28;20029;-71
2022/12/24 00:30:38;;;;;;;39.53;26.80;;;11.90;91.60;;;;;;5053035;28;20029;-70
2022/12/24 00:33:04;;;;;;;37.40;27.15;;;12.00;91.70;;;;;;5034922;28;20587;-70
2022/12/24 00:35:36;;;;;;;38.42;27.92;;;12.00;91.70;;;;;;5032712;28;20036;-72
2022/12/24 00:38:02;;;;;;;36.38;26.85;;;12.00;91.60;;;;;;5019771;28;20081;-71
2022/12/24 00:40:29;;;;;;;38.20;26.83;;;12.00;91.60;;;;;;5032403;28;20485;-71
2022/12/24 00:42:55;;;;;;;41.58;28.45;;;12.00;91.60;;;;;;5032648;28;20037;-70
2022/12/24 00:45:20;;;;;;;34.63;27.83;;;12.00;91.60;;;;;;5032456;28;20032;-72
2022/12/24 00:47:46;;;;;;;38.92;28.25;;;12.00;91.60;;;;;;5032393;28;20064;-72
2022/12/24 00:50:12;;;;;;;36.42;27.20;;;11.90;91.50;;;;;;5032243;28;20389;-70
2022/12/24 00:52:37;;;;;;;35.33;28.08;;;11.90;91.50;;;;;;5031311;28;20037;-70
2022/12/24 00:55:03;;;;;;;39.45;27.42;;;11.90;91.50;;;;;;5032459;28;20060;-71
2022/12/24 00:57:29;;;;;;;36.90;27.20;;;11.90;91.60;;;;;;5032488;28;20057;-71
2022/12/24 00:59:55;;;;;;;38.30;26.85;;;11.90;91.50;;;;;;5040255;28;20107;-71
2022/12/24 01:02:21;;;;;;;36.28;26.27;;;12.00;91.60;;;;;;5050265;28;20432;-70
2022/12/24 01:07:31;;;;;;;;;;;12.00;91.40;;;;;;5052581;28;20044;-70
2022/12/24 01:09:58;;;;;;;35.22;25.85;;;12.10;91.40;;;;;;5033942;28;19913;-72
2022/12/24 01:12:24;;;;;;;36.80;26.27;;;12.10;91.30;;;;;;5034106;28;20029;-72
2022/12/24 01:14:50;;;;;;;33.72;25.42;;;12.10;91.30;;;;;;5032684;28;20466;-71
2022/12/24 01:17:16;;;;;;;33.15;24.75;;;12.10;91.30;;;;;;5051795;28;20056;-71
2022/12/24 01:19:41;;;;;;;36.22;25.75;;;12.10;91.20;;;;;;5052260;28;20071;-71
2022/12/24 01:22:07;;;;;;;36.53;25.30;;;12.10;91.20;;;;;;5034277;28;20121;-71
2022/12/24 01:24:33;;;;;;;38.15;25.85;;;12.10;91.20;;;;;;5051841;28;20099;-70
2022/12/24 01:26:58;;;;;;;36.28;27.13;;;12.10;91.30;;;;;;5033854;28;20080;-70
2022/12/24 01:29:24;;;;;;;35.95;26.17;;;12.10;91.20;;;;;;5051936;28;20087;-71
2022/12/24 01:31:50;;;;;;;33.97;26.02;;;12.10;91.20;;;;;;5052070;28;20397;-72
2022/12/24 01:34:15;;;;;;;36.58;26.45;;;12.10;91.10;;;;;;5034000;28;20091;-71
2022/12/24 01:36:41;;;;;;;38.13;26.27;;;12.10;91.10;;;;;;5033824;28;20040;-70
2022/12/24 01:39:07;;;;;;;31.90;25.50;;;12.10;91.20;;;;;;5034024;28;20041;-72
2022/12/24 01:44:27;;;;;;;;;;;12.10;91.20;;;;;;5056680;28;20036;-71
2022/12/24 01:47:19;;;;;;;30.88;23.67;;;12.10;91.10;;;;;;5055896;28;19912;-70
2022/12/24 01:50:09;;;;;;;34.78;23.75;;;12.10;91.10;;;;;;5047783;28;20037;-72
2022/12/24 01:52:35;;;;;;;32.08;23.50;;;12.00;91.10;;;;;;5054235;28;20037;-72
2022/12/24 01:55:09;;;;;;;34.50;22.90;;;12.00;91.00;;;;;;5037780;28;20028;-71
2022/12/24 01:57:48;;;;;;;30.92;22.50;;;11.90;91.10;;;;;;5055723;28;20025;-70
2022/12/24 02:00:15;;;;;;;32.53;21.77;;;11.90;91.10;;;;;;5037497;28;20056;-69
2022/12/24 02:02:45;;;;;;;33.22;21.90;;;11.80;91.10;;;;;;5037691;28;20048;-70
2022/12/24 02:05:29;;;;;;;30.38;21.63;;;11.80;91.10;;;;;;5055907;28;20041;-71
2022/12/24 02:07:58;;;;;;;33.00;21.02;;;11.80;91.10;;;;;;5037480;28;20033;-71
2022/12/24 02:10:24;;;;;;;30.63;22.50;;;11.80;91.00;;;;;;5037450;28;20555;-72
2022/12/24 02:12:51;;;;;;;29.95;21.30;;;11.80;90.90;;;;;;5037485;28;20040;-71
2022/12/24 02:15:19;;;;;;;29.05;21.55;;;11.80;91.10;;;;;;5055317;28;20033;-71
2022/12/24 02:17:57;;;;;;;29.65;20.75;;;11.80;91.00;;;;;;5037496;28;20029;-70
2022/12/24 02:20:47;;;;;;;29.58;22.25;;;11.80;90.90;;;;;;5055338;28;20033;-70
2022/12/24 02:23:21;;;;;;;30.52;23.25;;;11.80;91.00;;;;;;5055369;28;20381;-71
2022/12/24 02:25:59;;;;;;;29.17;21.92;;;11.80;90.80;;;;;;5055138;28;20041;-71
2022/12/24 02:28:49;;;;;;;33.33;24.85;;;11.80;90.90;;;;;;5071249;28;20094;-73
2022/12/24 02:31:23;;;;;;;30.38;22.50;;;11.80;91.00;;;;;;5056884;28;20390;-71
2022/12/24 02:34:19;;;;;;;32.22;23.40;;;11.80;91.00;;;;;;5075237;28;20400;-70
2022/12/24 02:36:56;;;;;;;31.27;23.48;;;11.70;90.90;;;;;;5073356;28;20115;-72
2022/12/24 02:39:50;;;;;;;28.35;23.50;;;11.60;90.90;;;;;;5074939;28;20060;-71
2022/12/24 02:42:21;;;;;;;25.27;18.00;;;11.50;90.90;;;;;;5075211;28;20037;-70
2022/12/24 02:44:55;;;;;;;31.05;22.70;;;11.50;91.00;;;;;;5074801;28;20400;-71
2022/12/24 02:47:23;;;;;;;31.92;23.63;;;11.50;91.00;;;;;;5074717;28;20547;-71
2022/12/24 02:49:49;;;;;;;32.45;23.30;;;11.50;91.00;;;;;;5074657;28;20104;-71
2022/12/24 02:52:33;;;;;;;30.75;23.65;;;11.60;90.90;;;;;;5056741;28;20120;-71
2022/12/24 02:55:07;;;;;;;29.23;22.90;;;11.50;90.90;;;;;;5055278;28;20514;-72
2022/12/24 02:57:45;;;;;;;32.20;23.08;;;11.50;90.90;;;;;;5074648;28;20036;-71
2022/12/24 03:00:16;;;;;;;30.60;21.55;;;11.50;91.10;;;;;;5074501;28;20035;-71
2022/12/24 03:03:06;;;;;;;32.45;23.70;;;11.40;91.10;;;;;;5056549;28;20128;-72
2022/12/24 03:06:11;;;;;;;30.80;21.98;;;11.40;91.10;;;;;;5074336;28;20048;-70
2022/12/24 03:09:32;;;;;;;32.85;21.92;;;11.50;91.10;;;;;;5062238;28;20036;-71
2022/12/24 03:12:11;;;;;;;28.60;21.13;;;11.40;91.10;;;;;;5015808;28;20030;-70
2022/12/24 03:14:39;;;;;;;36.08;23.08;;;11.40;91.10;;;;;;5032215;28;20041;-72
2022/12/24 03:17:06;;;;;;;29.25;21.50;;;11.40;91.10;;;;;;5061265;28;20036;-71
2022/12/24 03:19:32;;;;;;;29.65;21.40;;;11.40;91.10;;;;;;5056115;28;20384;-71
2022/12/24 03:22:01;;;;;;;33.17;22.33;;;11.40;91.20;;;;;;5055905;28;20036;-71
2022/12/24 03:24:27;;;;;;;28.65;21.30;;;11.40;91.20;;;;;;5056134;28;20396;-70
2022/12/24 03:26:52;;;;;;;29.30;20.70;;;11.40;91.30;;;;;;5073951;28;20285;-71
2022/12/24 03:29:18;;;;;;;26.17;19.88;;;11.40;91.20;;;;;;5074065;28;20023;-72
2022/12/24 03:31:50;;;;;;;28.63;20.85;;;11.40;91.20;;;;;;5074084;28;20041;-71
2022/12/24 03:34:17;;;;;;;32.28;20.35;;;11.40;91.30;;;;;;5073748;28;20035;-71
2022/12/24 03:36:42;;;;;;;30.23;18.83;;;11.50;91.30;;;;;;5055947;28;20404;-71
2022/12/24 03:39:09;;;;;;;22.98;18.98;;;11.50;91.40;;;;;;5055797;28;20033;-71
2022/12/24 03:41:36;;;;;;;26.50;19.02;;;11.50;91.20;;;;;;5055647;28;20037;-71
2022/12/24 03:44:02;;;;;;;27.35;18.40;;;11.50;91.10;;;;;;5073647;28;20028;-71
2022/12/24 03:46:28;;;;;;;28.45;18.00;;;11.60;91.20;;;;;;5055498;28;20040;-71
2022/12/24 03:48:54;;;;;;;22.67;17.15;;;11.60;91.20;;;;;;5055456;28;20040;-70
2022/12/24 03:51:22;;;;;;;24.83;17.05;;;11.60;91.00;;;;;;5055329;28;20063;-70
2022/12/24 03:53:48;;;;;;;22.08;16.38;;;11.60;91.00;;;;;;5073334;28;20033;-71
2022/12/24 03:56:14;;;;;;;26.83;18.23;;;11.70;90.90;;;;;;5055127;28;20040;-71
2022/12/24 03:58:40;;;;;;;21.95;16.85;;;11.60;90.80;;;;;;5073184;28;20070;-69
2022/12/24 04:01:06;;;;;;;22.83;16.23;;;11.60;90.80;;;;;;5055828;28;20045;-72
2022/12/24 04:03:31;;;;;;;23.98;16.08;;;11.60;90.80;;;;;;5073512;28;20021;-70
2022/12/24 04:06:02;;;;;;;21.85;15.88;;;11.60;90.80;;;;;;5054923;28;20039;-71
2022/12/24 04:08:28;;;;;;;20.13;14.95;;;11.60;91.00;;;;;;5055409;28;20040;-71
2022/12/24 04:10:53;;;;;;;28.70;14.60;;;11.60;90.70;;;;;;5073243;28;20055;-70
2022/12/24 04:13:19;;;;;;;18.65;14.38;;;11.60;90.60;;;;;;5055425;28;20048;-71
2022/12/24 04:15:45;;;;;;;20.02;14.13;;;11.60;90.70;;;;;;5073330;28;20487;-71
2022/12/24 04:18:11;;;;;;;20.35;14.55;;;11.60;90.80;;;;;;5072826;28;20025;-71
2022/12/24 04:20:36;;;;;;;21.20;14.65;;;11.50;90.80;;;;;;5073064;28;20040;-70
2022/12/24 04:23:02;;;;;;;24.42;14.18;;;11.60;90.70;;;;;;5072974;28;20492;-71
2022/12/24 04:25:28;;;;;;;21.55;14.25;;;11.60;90.70;;;;;;5054573;28;20052;-71
2022/12/24 04:27:53;;;;;;;19.88;14.48;;;11.70;90.70;;;;;;5054847;28;20526;-71
2022/12/24 04:30:19;;;;;;;18.83;14.13;;;11.70;90.60;;;;;;5054980;28;20392;-71
2022/12/24 04:32:45;;;;;;;19.98;14.02;;;11.70;90.60;;;;;;5055140;28;20040;-71
2022/12/24 04:35:10;;;;;;;20.92;13.90;;;11.70;90.60;;;;;;5072740;28;20020;-70
2022/12/24 04:37:36;;;;;;;22.75;13.90;;;11.70;90.80;;;;;;5054701;28;20041;-71
2022/12/24 04:40:02;;;;;;;20.65;14.32;;;11.70;90.60;;;;;;5054563;28;20033;-71
2022/12/24 04:42:28;;;;;;;21.05;14.45;;;11.70;90.70;;;;;;5072686;28;20143;-72
2022/12/24 04:44:53;;;;;;;19.88;13.55;;;11.80;90.60;;;;;;5054660;28;20047;-71
2022/12/24 04:47:19;;;;;;;20.45;13.52;;;11.70;90.50;;;;;;5072543;28;20041;-71
2022/12/24 04:49:45;;;;;;;23.80;14.32;;;11.80;90.70;;;;;;5054720;28;20036;-71
2022/12/24 04:52:10;;;;;;;19.67;14.15;;;11.80;90.60;;;;;;5072338;28;20075;-70
2022/12/24 04:54:36;;;;;;;22.98;14.15;;;11.80;90.70;;;;;;5072589;28;20039;-71
2022/12/24 04:57:02;;;;;;;19.95;13.10;;;11.80;90.60;;;;;;5072630;28;20074;-71
2022/12/24 04:59:27;;;;;;;19.90;13.20;;;11.90;90.60;;;;;;5054379;28;20087;-72
2022/12/24 05:01:53;;;;;;;23.60;13.77;;;11.90;90.50;;;;;;5054459;28;20055;-72
2022/12/24 05:04:19;;;;;;;19.15;13.90;;;11.90;90.50;;;;;;5072166;28;20104;-70
2022/12/24 05:06:44;;;;;;;21.90;14.13;;;11.90;90.50;;;;;;5060592;28;20520;-71
2022/12/24 05:09:10;;;;;;;20.13;14.02;;;11.90;90.50;;;;;;5052381;28;20108;-71
2022/12/24 05:11:36;;;;;;;20.45;13.55;;;11.90;90.60;;;;;;5050969;28;20045;-71
2022/12/24 05:14:01;;;;;;;20.25;13.65;;;12.00;90.60;;;;;;5052397;28;20040;-71
2022/12/24 05:16:27;;;;;;;24.08;13.95;;;12.00;90.50;;;;;;5051656;28;20037;-71
2022/12/24 05:18:53;;;;;;;17.23;13.35;;;12.00;90.50;;;;;;5052069;28;20037;-70
2022/12/24 05:21:21;;;;;;;20.27;13.90;;;12.00;90.50;;;;;;5052288;28;20033;-70
2022/12/24 05:26:45;;;;;;;19.20;14.30;;;12.10;90.50;;;;;;5052070;28;20475;-70
2022/12/24 05:29:11;;;;;;;19.95;14.63;;;12.00;90.50;;;;;;5052041;28;20052;-71
2022/12/24 05:31:39;;;;;;;21.45;14.30;;;12.10;90.60;;;;;;5052000;28;20033;-70
2022/12/24 05:34:05;;;;;;;19.60;14.48;;;12.10;90.60;;;;;;5034385;28;20029;-70
2022/12/24 05:36:31;;;;;;;24.63;15.02;;;12.00;90.50;;;;;;5034025;28;20037;-71
2022/12/24 05:38:57;;;;;;;19.80;14.85;;;12.00;90.60;;;;;;5052004;28;20516;-71
2022/12/24 05:41:23;;;;;;;20.15;14.30;;;12.00;90.60;;;;;;5052050;28;20227;-70
2022/12/24 05:43:49;;;;;;;19.35;13.95;;;12.00;90.70;;;;;;5034058;28;20124;-71
2022/12/24 05:46:17;;;;;;;24.98;14.98;;;12.00;90.60;;;;;;5034106;28;20045;-71
2022/12/24 05:48:43;;;;;;;19.50;14.65;;;11.90;90.70;;;;;;5052005;28;20081;-73
2022/12/24 05:51:11;;;;;;;17.70;13.48;;;11.90;90.60;;;;;;5033654;28;20046;-71
2022/12/24 05:53:37;;;;;;;23.38;14.80;;;11.90;90.70;;;;;;5051575;28;20033;-70
2022/12/24 05:56:10;;;;;;;21.45;13.70;;;11.90;90.70;;;;;;5033839;28;20033;-70
2022/12/24 05:58:36;;;;;;;22.63;13.65;;;11.90;90.50;;;;;;5033962;28;20041;-70
2022/12/24 06:01:03;;;;;;;18.27;12.73;;;11.90;90.70;;;;;;5033864;28;20396;-71
2022/12/24 06:03:29;;;;;;;19.15;13.77;;;11.90;90.80;;;;;;5051635;28;20037;-72
2022/12/24 06:06:25;;;;;;;21.42;13.70;;;11.90;90.60;;;;;;5033787;28;20492;-72
2022/12/24 06:08:52;;;;;;;24.60;13.48;;;11.90;90.50;;;;;;5025938;28;20506;-70
2022/12/24 06:11:21;;;;;;;20.80;13.27;;;12.00;90.70;;;;;;5051709;28;20064;-71
2022/12/24 06:13:47;;;;;;;20.55;13.27;;;12.00;90.60;;;;;;5033654;28;20037;-71
2022/12/24 06:16:18;;;;;;;18.92;12.98;;;12.00;90.70;;;;;;5051670;28;20372;-71
2022/12/24 06:18:44;;;;;;;21.10;13.32;;;12.00;90.60;;;;;;5033770;28;20029;-70
2022/12/24 06:21:11;;;;;;;19.92;13.13;;;11.90;90.60;;;;;;5033988;28;20076;-71
2022/12/24 06:23:39;;;;;;;20.13;13.13;;;12.00;90.80;;;;;;5033650;28;20029;-71
2022/12/24 06:26:08;;;;;;;21.05;14.18;;;12.00;90.70;;;;;;5051359;28;20057;-71
2022/12/24 06:28:35;;;;;;;20.25;12.82;;;11.90;91.00;;;;;;5052608;28;20033;-72
2022/12/24 06:31:02;;;;;;;18.08;12.82;;;11.90;90.80;;;;;;5037057;28;20033;-70
2022/12/24 06:33:29;;;;;;;23.38;13.75;;;12.00;90.80;;;;;;5037230;28;20041;-70
2022/12/24 06:35:55;;;;;;;19.00;13.15;;;12.00;90.70;;;;;;5055345;28;20041;-70
2022/12/24 06:38:20;;;;;;;23.30;13.82;;;12.00;90.70;;;;;;5054989;28;20048;-71
2022/12/24 06:40:47;;;;;;;20.67;13.30;;;12.10;90.70;;;;;;5054127;28;20127;-70
2022/12/24 06:43:13;;;;;;;18.63;13.43;;;12.10;90.70;;;;;;5052815;28;20098;-72
2022/12/24 06:45:43;;;;;;;22.63;13.55;;;12.10;90.70;;;;;;5043457;28;20041;-71
2022/12/24 06:48:09;;;;;;;19.42;12.85;;;12.10;90.70;;;;;;5055015;28;20109;-72
2022/12/24 06:50:35;;;;;;;19.02;13.00;;;12.20;90.70;;;;;;5036909;28;20060;-72
2022/12/24 06:53:00;;;;;;;20.17;14.05;;;12.20;90.70;;;;;;5054732;28;20033;-71
2022/12/24 06:55:26;;;;;;;18.83;13.02;;;12.20;90.70;;;;;;5054270;28;20036;-72
2022/12/24 06:57:52;;;;;;;20.58;15.15;;;12.20;90.70;;;;;;5036614;28;20440;-74
2022/12/24 07:00:20;;;;;;;23.48;14.35;;;12.30;90.80;;;;;;5036593;28;20049;-73
2022/12/24 07:02:46;;;;;;;20.90;13.60;;;12.30;90.80;;;;;;5036749;28;20120;-69
2022/12/24 07:05:13;;;;;;;19.38;13.90;;;12.30;90.90;;;;;;5054611;28;20136;-69
2022/12/24 07:07:41;;;;;;;21.20;13.30;;;12.30;90.80;;;;;;5054218;28;20041;-70
2022/12/24 07:10:12;;;;;;;20.85;14.35;;;12.40;90.80;;;;;;5054237;28;20033;-69
2022/12/24 07:12:38;;;;;;;19.67;13.65;;;12.40;90.70;;;;;;5036088;28;20033;-70
2022/12/24 07:15:04;;;;;;;20.88;13.15;;;12.50;90.80;;;;;;5036376;28;20040;-69
2022/12/24 07:17:30;;;;;;;19.27;13.52;;;12.40;90.70;;;;;;5054101;28;20167;-69
2022/12/24 07:19:56;;;;;;;26.27;13.80;;;12.50;90.70;;;;;;5054349;28;20104;-69
2022/12/24 07:22:22;;;;;;;21.00;14.13;;;12.50;90.60;;;;;;5036141;28;20048;-67
2022/12/24 07:24:47;;;;;;;22.90;14.48;;;12.50;90.70;;;;;;5035982;28;20349;-69
2022/12/24 07:27:13;;;;;;;20.67;14.45;;;12.60;90.60;;;;;;5035546;28;20053;-68
2022/12/24 07:29:40;;;;;;;22.17;14.38;;;12.60;90.60;;;;;;5052616;28;20064;-69
2022/12/24 07:32:06;;;;;;;24.02;13.65;;;12.70;90.60;;;;;;5052726;28;20362;-69
2022/12/24 07:34:31;;;;;;;19.98;13.52;;;12.70;90.60;;;;;;5036214;28;20040;-68
2022/12/24 07:36:57;;;;;;;21.80;14.20;;;12.70;90.50;;;;;;5054099;28;20041;-69
2022/12/24 07:39:23;;;;;;;21.63;13.48;;;12.70;90.60;;;;;;5053616;28;20393;-69
2022/12/24 07:41:49;;;;;;;24.83;14.77;;;12.70;90.60;;;;;;5053461;28;20037;-68
2022/12/24 07:44:15;;;;;;;22.58;14.35;;;12.80;90.70;;;;;;5036183;28;20515;-69
2022/12/24 07:46:42;;;;;;;20.73;13.93;;;12.90;90.60;;;;;;5051963;28;20073;-68
2022/12/24 07:49:08;;;;;;;21.92;13.70;;;13.00;90.60;;;;;;5053583;28;20029;-66
2022/12/24 07:51:34;;;;;;;24.10;14.43;;;13.00;90.50;;;;;;5035757;28;20083;-68
2022/12/24 07:53:59;;;;;;;22.58;14.93;;;13.00;90.40;;;;;;5035115;28;20029;-73
2022/12/24 07:56:25;;;;;;;23.50;15.30;;;13.10;90.40;;;;;;5053428;28;20047;-67
2022/12/24 07:58:51;;;;;;;21.42;15.18;;;13.10;90.50;;;;;;5053187;28;20025;-70
2022/12/24 08:01:17;;;;;;;25.13;14.52;;;13.10;90.30;;;;;;5035346;28;20515;-65
2022/12/24 08:03:44;;;;;;;22.40;15.10;;;13.20;90.50;;;;;;5052943;28;20029;-69
2022/12/24 08:06:10;;;;;;;23.02;14.70;;;13.20;90.40;;;;;;5052870;28;20247;-69
2022/12/24 08:08:37;;;;;;;20.35;14.50;;;13.20;90.30;;;;;;5052722;28;20497;-68
2022/12/24 08:11:05;;;;;;;25.52;16.00;;;13.20;90.30;;;;;;5052658;28;20386;-69
2022/12/24 08:13:32;;;;;;;25.15;15.65;;;13.20;90.40;;;;;;5034774;28;20041;-71
2022/12/24 08:15:58;;;;;;;23.33;15.40;;;13.30;90.30;;;;;;5052785;28;20509;-70
2022/12/24 08:18:24;;;;;;;25.67;14.85;;;13.30;90.30;;;;;;5052692;28;20078;-73
2022/12/24 08:20:50;;;;;;;25.67;15.38;;;13.50;90.30;;;;;;5052804;28;20079;-68
2022/12/24 08:23:15;;;;;;;22.83;14.85;;;13.50;90.20;;;;;;5034578;28;20041;-70
2022/12/24 08:25:46;;;;;;;18.52;13.13;;;13.60;90.20;;;;;;5052432;28;20441;-68
2022/12/24 08:28:14;;;;;;;19.10;13.45;;;13.70;90.20;;;;;;5051928;28;20041;-71
2022/12/24 08:30:42;;;;;;;23.42;15.13;;;13.70;90.20;;;;;;5047398;28;20130;-69
2022/12/24 08:33:08;;;;;;;25.42;15.20;;;13.80;90.20;;;;;;5051518;28;20489;-69
2022/12/24 08:35:33;;;;;;;20.80;14.13;;;13.80;90.10;;;;;;5052276;28;20087;-70
2022/12/24 08:37:59;;;;;;;26.60;15.07;;;13.70;90.20;;;;;;5034280;28;20116;-73
2022/12/24 08:40:25;;;;;;;23.45;15.05;;;13.80;90.20;;;;;;5032422;28;20092;-71
2022/12/24 08:42:50;;;;;;;20.40;14.10;;;13.90;90.20;;;;;;5020746;28;20409;-71
2022/12/24 08:45:16;;;;;;;22.15;15.30;;;13.90;90.20;;;;;;5031891;28;20474;-71
2022/12/24 08:47:42;;;;;;;24.73;16.27;;;14.00;90.20;;;;;;5032019;28;20048;-71
2022/12/24 08:50:08;;;;;;;18.83;14.85;;;14.00;90.10;;;;;;5042072;28;20045;-72
2022/12/24 08:52:34;;;;;;;22.63;15.32;;;14.10;90.10;;;;;;5050774;28;20127;-70
2022/12/24 08:55:00;;;;;;;24.67;15.43;;;14.20;90.20;;;;;;5033761;28;20037;-69
2022/12/24 08:57:26;;;;;;;22.42;15.52;;;14.20;90.00;;;;;;5051729;28;20465;-71
2022/12/24 08:59:51;;;;;;;21.77;14.27;;;14.30;90.00;;;;;;5050175;28;20037;-70
2022/12/24 09:02:17;;;;;;;21.92;15.35;;;14.40;90.00;;;;;;5041563;28;20037;-70
2022/12/24 09:04:43;;;;;;;27.02;15.63;;;14.50;89.80;;;;;;5031676;28;20045;-70
2022/12/24 09:07:09;;;;;;;27.77;15.75;;;14.60;89.70;;;;;;5021756;28;20037;-71
2022/12/24 09:09:35;;;;;;;20.80;15.35;;;14.60;89.80;;;;;;5033664;28;20033;-72
2022/12/24 09:12:04;;;;;;;22.33;15.25;;;14.60;89.40;;;;;;5033837;28;20119;-74
2022/12/24 09:14:30;;;;;;;22.52;14.85;;;14.80;89.50;;;;;;5034115;28;20029;-75
2022/12/24 09:16:56;;;;;;;21.77;15.20;;;14.90;89.50;;;;;;5033522;28;20568;-73
2022/12/24 09:19:21;;;;;;;24.98;15.68;;;14.90;89.30;;;;;;5051601;28;20120;-74
2022/12/24 09:21:47;;;;;;;24.13;15.57;;;14.90;89.30;;;;;;5045439;28;20029;-74
2022/12/24 09:24:13;;;;;;;27.48;15.43;;;15.00;89.10;;;;;;5025337;28;20040;-73
2022/12/24 09:26:41;;;;;;;24.55;15.35;;;15.00;88.90;;;;;;5049084;28;20044;-78
2022/12/24 09:29:06;;;;;;;25.33;15.27;;;15.10;88.80;;;;;;5052005;28;20048;-75
2022/12/24 09:31:32;;;;;;;24.23;15.90;;;15.10;88.80;;;;;;5044259;28;20100;-74
2022/12/24 09:33:58;;;;;;;23.17;15.98;;;15.10;89.10;;;;;;5045968;28;20516;-75
2022/12/24 09:36:24;;;;;;;27.48;16.85;;;15.20;88.80;;;;;;5051253;28;20569;-75
2022/12/24 09:38:50;;;;;;;23.55;14.98;;;15.40;88.60;;;;;;5030945;28;20033;-75
2022/12/24 09:41:40;;;;;;;31.55;16.13;;;15.40;88.50;;;;;;5028569;28;20037;-73
2022/12/24 09:44:22;;;;;;;75.88;44.28;;;15.50;88.10;;;;;;5051470;28;20096;-76
2022/12/24 09:46:50;;;;;;;26.83;18.08;;;15.60;88.30;;;;;;5032429;28;20045;-76
2022/12/24 09:49:23;;;;;;;27.33;16.88;;;15.70;88.60;;;;;;5051180;28;20033;-78
2022/12/24 09:51:51;;;;;;;;;;;15.70;88.40;;;;;;5033508;28;20068;-75
2022/12/24 09:54:30;;;;;;;24.35;16.35;;;15.80;88.60;;;;;;5033992;28;19983;-76
2022/12/24 09:57:04;;;;;;;25.75;16.05;;;15.80;88.20;;;;;;5052110;28;20057;-76
2022/12/24 09:59:42;;;;;;;23.65;13.30;;;15.90;88.40;;;;;;5034176;28;20029;-76
2022/12/24 10:02:14;;;;;;;27.05;17.10;;;15.90;88.40;;;;;;5052280;28;20067;-74
2022/12/24 10:04:41;;;;;;;21.63;15.20;;;16.00;88.60;;;;;;5037114;28;20124;-75
2022/12/24 10:07:28;;;;;;;27.50;17.17;;;16.00;88.40;;;;;;5037169;28;20072;-76
2022/12/24 10:10:03;;;;;;;24.30;16.40;;;16.00;88.30;;;;;;5054971;28;20033;-77
2022/12/24 10:12:35;;;;;;;25.60;16.48;;;16.00;88.20;;;;;;5055038;28;20080;-75
2022/12/24 10:15:37;;;;;;;21.88;15.68;;;16.10;88.60;;;;;;5054596;28;20030;-76
2022/12/24 10:18:02;;;;;;;22.38;16.88;;;16.10;88.20;;;;;;5036197;28;20033;-75
2022/12/24 10:20:46;;;;;;;25.60;17.08;;;16.10;88.20;;;;;;5054874;28;20116;-75
2022/12/24 10:23:15;;;;;;;28.45;17.23;;;16.20;88.30;;;;;;5054699;28;20029;-76
2022/12/24 10:26:11;;;;;;;29.85;18.27;;;16.20;88.50;;;;;;5036263;28;20074;-76
2022/12/24 10:28:51;;;;;;;28.88;17.13;;;16.30;88.80;;;;;;5036560;28;20128;-74
2022/12/24 10:31:22;;;;;;;26.35;17.75;;;16.30;88.00;;;;;;5054571;28;20044;-76
2022/12/24 10:33:52;;;;;;;27.67;17.25;;;16.40;87.80;;;;;;5054760;28;20120;-74
2022/12/24 10:36:25;;;;;;;24.95;16.10;;;16.60;87.40;;;;;;5054802;28;20444;-76
2022/12/24 10:38:51;;;;;;;28.30;17.63;;;16.70;87.00;;;;;;5054782;28;20044;-76
2022/12/24 10:41:17;;;;;;;26.40;17.27;;;16.70;86.80;;;;;;5054546;28;20033;-75
2022/12/24 10:43:44;;;;;;;28.40;16.77;;;16.80;86.90;;;;;;5036511;28;20085;-74
2022/12/24 10:46:34;;;;;;;29.02;17.10;;;16.70;86.60;;;;;;5036739;28;20061;-75
2022/12/24 10:49:02;;;;;;;30.60;16.88;;;16.70;86.90;;;;;;5030320;28;20123;-75
2022/12/24 10:51:36;;;;;;;29.95;16.80;;;16.70;87.00;;;;;;5054099;28;20103;-74
2022/12/24 10:54:06;;;;;;;29.25;16.92;;;16.70;87.90;;;;;;5036078;28;20056;-75
2022/12/24 10:56:40;;;;;;;29.13;16.60;;;16.70;87.40;;;;;;5054406;28;20037;-77
2022/12/24 10:59:05;;;;;;;26.10;17.17;;;16.70;87.30;;;;;;5054479;28;20041;-75
2022/12/24 11:01:49;;;;;;;28.60;16.58;;;16.70;87.40;;;;;;5054338;28;20108;-75
2022/12/24 11:04:21;;;;;;;33.13;18.67;;;16.80;87.50;;;;;;5036554;28;20029;-75
2022/12/24 11:06:57;;;;;;;32.83;16.55;;;16.90;87.50;;;;;;5036000;28;20037;-75
2022/12/24 11:09:29;;;;;;;25.75;15.98;;;16.90;88.10;;;;;;5054245;28;20477;-76
2022/12/24 11:11:56;;;;;;;28.70;16.02;;;17.00;87.10;;;;;;5054147;28;20057;-75
2022/12/24 11:14:23;;;;;;;30.00;16.95;;;17.10;87.10;;;;;;5053491;28;20065;-75
2022/12/24 11:16:54;;;;;;;29.90;16.60;;;17.20;87.10;;;;;;5053368;28;20026;-74
2022/12/24 11:19:32;;;;;;;28.08;16.50;;;17.30;87.70;;;;;;5035910;28;20065;-74
2022/12/24 11:22:02;;;;;;;26.75;15.38;;;17.30;87.70;;;;;;5035956;28;20045;-77
2022/12/24 11:24:38;;;;;;;31.05;15.88;;;17.30;86.90;;;;;;5053743;28;20033;-75
2022/12/24 11:27:23;;;;;;;23.95;12.10;;;17.30;87.90;;;;;;5053671;28;20107;-75
2022/12/24 11:29:49;;;;;;;26.52;12.95;;;17.30;87.70;;;;;;5053632;28;20075;-77
2022/12/24 11:32:20;;;;;;;28.88;13.57;;;17.40;87.80;;;;;;5035479;28;20028;-76
2022/12/24 11:34:46;;;;;;;25.88;11.40;;;17.40;88.60;;;;;;5053535;28;20033;-75
2022/12/24 11:37:22;;;;;;;23.60;10.05;;;17.40;88.00;;;;;;5035523;28;20156;-75
2022/12/24 11:39:54;;;;;;;29.13;12.68;;;17.50;88.20;;;;;;5053416;28;20037;-74
2022/12/24 11:42:31;;;;;;;32.53;17.90;;;17.60;88.20;;;;;;5035380;28;20036;-76
2022/12/24 11:44:59;;;;;;;22.15;7.43;;;17.70;89.10;;;;;;5053177;28;20459;-76
2022/12/24 11:47:37;;;;;;;21.35;6.47;;;17.80;88.40;;;;;;5052965;28;20489;-75
2022/12/24 11:50:38;;;;;;;24.40;6.60;;;17.90;88.60;;;;;;5035366;28;20433;-75
2022/12/24 11:53:36;;;;;;;23.35;6.07;;;18.00;88.70;;;;;;5011436;28;20175;-75
2022/12/24 11:56:13;;;;;;;16.73;5.28;;;18.10;88.40;;;;;;5031139;28;20033;-74
2022/12/24 11:58:47;;;;;;;16.15;5.38;;;18.20;88.30;;;;;;5035109;28;20056;-75
2022/12/24 12:01:37;;;;;;;23.80;6.38;;;18.30;88.30;;;;;;5053580;28;20033;-75
2022/12/24 12:04:10;;;;;;;28.30;6.70;;;18.40;88.10;;;;;;5053096;28;20171;-76
2022/12/24 12:06:52;;;;;;;20.13;6.38;;;18.40;88.10;;;;;;5052683;28;20045;-74
2022/12/24 12:09:35;;;;;;;21.40;5.65;;;18.50;87.90;;;;;;5052770;28;20033;-74
2022/12/24 12:12:11;;;;;;;24.65;6.03;;;18.60;88.30;;;;;;5052615;28;20460;-75
2022/12/24 12:14:46;;;;;;;15.63;5.05;;;18.60;87.70;;;;;;5034729;28;20029;-75
2022/12/24 12:17:39;;;;;;;21.73;5.28;;;18.70;87.50;;;;;;5052683;28;20060;-75
2022/12/24 12:20:17;;;;;;;15.98;4.57;;;18.70;88.10;;;;;;5052714;28;20115;-75
2022/12/24 12:23:20;;;;;;;16.83;5.50;;;18.70;88.10;;;;;;5052698;28;20373;-75
2022/12/24 12:26:13;;;;;;;17.88;4.43;;;18.70;88.20;;;;;;5051950;28;20176;-76
2022/12/24 12:29:04;;;;;;;20.75;5.07;;;18.80;88.00;;;;;;5052573;28;20115;-74
2022/12/24 12:31:40;;;;;;;20.00;5.40;;;18.90;87.60;;;;;;5052388;28;20020;-75
2022/12/24 12:34:11;;;;;;;22.05;5.68;;;18.90;87.50;;;;;;5052613;28;20076;-75
2022/12/24 12:36:45;;;;;;;18.35;4.43;;;18.90;87.20;;;;;;5052311;28;20220;-74
2022/12/24 12:39:11;;;;;;;21.00;6.00;;;18.90;87.00;;;;;;5052440;28;20171;-75
2022/12/24 12:42:01;;;;;;;17.17;6.05;;;19.00;87.10;;;;;;5052400;28;20049;-75
2022/12/24 12:44:40;;;;;;;16.70;5.05;;;19.00;87.00;;;;;;5051974;28;20484;-75
2022/12/24 12:47:40;;;;;;;18.50;4.70;;;19.10;86.50;;;;;;5051998;28;20036;-75
2022/12/24 12:50:21;;;;;;;16.27;4.60;;;19.10;86.20;;;;;;5030185;28;20033;-75
2022/12/24 12:52:52;;;;;;;17.50;4.30;;;19.00;86.30;;;;;;5052301;28;20123;-74